Kalam Weather



Kalam's Current Weather

Temprature 17.81o overcast clouds

overcast clouds

Rain: 0 %

Min Temprature17.81o
Max Temprature17.81o
Humidity60
Wind Speed2.35 m/h
Sun Rise05:11:08
Sun Set19:01:11
Current Time: 08-May-2021 15:10:41
Lat/Lon: 35.4816, 72.5848




Kalam's Geo Location



Kalam's Weather Forecast

Time Overall Temp Min Temp Max Temp Humidity Wind Speed Rain
08-May-2021 (Sat)
17:00:00 moderate rain 17.620 15.720 17.620 62 2.39 m/h 427 %
20:00:00 light rain 14.830 12.960 14.830 74 1.08 m/h 23 %
23:00:00 overcast clouds 12.650 12.650 12.650 73 1.84 m/h 0 %
09-May-2021 (Sun)
02:00:00 overcast clouds 11.780 11.780 11.780 65 1.72 m/h 0 %
05:00:00 broken clouds 10.930 10.930 10.930 64 1.68 m/h 0 %
08:00:00 clear sky 16.790 16.790 16.790 47 0.44 m/h 0 %
11:00:00 clear sky 20.350 20.350 20.350 40 2.41 m/h 0 %
14:00:00 light rain 20.860 20.860 20.860 45 3.84 m/h 33 %
17:00:00 moderate rain 17.450 17.450 17.450 64 1.9 m/h 395 %
20:00:00 light rain 14.130 14.130 14.130 80 0.26 m/h 55 %
23:00:00 light rain 12.980 12.980 12.980 83 0.57 m/h 11 %
10-May-2021 (Mon)
02:00:00 few clouds 12.460 12.460 12.460 76 1.56 m/h 0 %
05:00:00 few clouds 11.740 11.740 11.740 66 1.18 m/h 0 %
08:00:00 clear sky 17.390 17.390 17.390 51 1.09 m/h 0 %
11:00:00 light rain 20.700 20.700 20.700 43 3.01 m/h 28 %
14:00:00 light rain 19.400 19.400 19.400 49 3.4 m/h 42 %
17:00:00 light rain 18.780 18.780 18.780 56 1.59 m/h 125 %
20:00:00 light rain 15.430 15.430 15.430 77 1.92 m/h 200 %
23:00:00 light rain 14.470 14.470 14.470 78 1.27 m/h 35 %
11-May-2021 (Tue)
02:00:00 light rain 14.110 14.110 14.110 75 2.01 m/h 18 %
05:00:00 light rain 13.670 13.670 13.670 77 1.26 m/h 12 %
08:00:00 light rain 14.840 14.840 14.840 73 1.43 m/h 12 %
11:00:00 light rain 17.900 17.900 17.900 62 2.26 m/h 190 %
14:00:00 moderate rain 17.030 17.030 17.030 72 3.51 m/h 470 %
17:00:00 moderate rain 13.030 13.030 13.030 90 1.86 m/h 672 %
20:00:00 overcast clouds 12.170 12.170 12.170 88 1.26 m/h 0 %
23:00:00 light rain 11.800 11.800 11.800 91 0.99 m/h 175 %
12-May-2021 (Wed)
02:00:00 light rain 10.920 10.920 10.920 97 1.53 m/h 29 %
05:00:00 light rain 10.740 10.740 10.740 97 1.73 m/h 31 %
08:00:00 overcast clouds 13.380 13.380 13.380 81 1.17 m/h 0 %
11:00:00 light rain 15.760 15.760 15.760 77 3.93 m/h 237 %
14:00:00 light rain 14.810 14.810 14.810 82 2.99 m/h 234 %
17:00:00 light rain 15.010 15.010 15.010 74 2.83 m/h 233 %
20:00:00 overcast clouds 11.610 11.610 11.610 88 0.86 m/h 0 %
23:00:00 overcast clouds 10.740 10.740 10.740 85 0.57 m/h 0 %
13-May-2021 (Thu)
02:00:00 overcast clouds 10.480 10.480 10.480 86 0.47 m/h 0 %
05:00:00 light rain 10.690 10.690 10.690 86 0.44 m/h 14 %
08:00:00 overcast clouds 12.270 12.270 12.270 83 0.78 m/h 0 %
11:00:00 moderate rain 11.660 11.660 11.660 93 1.58 m/h 343 %
14:00:00 light rain 12.200 12.200 12.200 87 1.25 m/h 30 %

Famous Cities (60)